sensor_id;sensor_type;location;lat;lon;timestamp;pressure;altitude;pressure_sealevel;temperature;humidity
51289;BME280;37372;52.294;5.152;2022-08-01T00:02:12;101735.22;;;18.13;100.00
51289;BME280;37372;52.294;5.152;2022-08-01T00:04:37;101730.34;;;18.14;100.00
51289;BME280;37372;52.294;5.152;2022-08-01T00:07:03;101737.25;;;18.13;100.00
51289;BME280;37372;52.294;5.152;2022-08-01T00:09:29;101732.03;;;18.11;100.00
51289;BME280;37372;52.294;5.152;2022-08-01T00:11:54;101732.03;;;18.11;100.00
51289;BME280;37372;52.294;5.152;2022-08-01T00:14:19;101738.97;;;18.10;100.00
51289;BME280;37372;52.294;5.152;2022-08-01T00:16:45;101737.38;;;18.09;100.00
51289;BME280;37372;52.294;5.152;2022-08-01T00:19:10;101741.78;;;18.10;100.00
51289;BME280;37372;52.294;5.152;2022-08-01T00:21:35;101745.44;;;18.11;100.00
51289;BME280;37372;52.294;5.152;2022-08-01T00:24:01;101744.19;;;18.12;100.00
51289;BME280;37372;52.294;5.152;2022-08-01T00:26:26;101743.06;;;18.09;100.00
51289;BME280;37372;52.294;5.152;2022-08-01T00:28:52;101749.53;;;18.10;100.00
51289;BME280;37372;52.294;5.152;2022-08-01T00:31:17;101751.91;;;18.11;100.00
51289;BME280;37372;52.294;5.152;2022-08-01T00:33:42;101745.44;;;18.11;100.00
51289;BME280;37372;52.294;5.152;2022-08-01T00:36:08;101741.78;;;18.10;100.00
51289;BME280;37372;52.294;5.152;2022-08-01T00:38:33;101738.97;;;18.10;100.00
51289;BME280;37372;52.294;5.152;2022-08-01T00:40:59;101735.75;;;18.08;100.00
51289;BME280;37372;52.294;5.152;2022-08-01T00:43:24;101740.22;;;18.09;100.00
51289;BME280;37372;52.294;5.152;2022-08-01T00:45:49;101741.91;;;18.07;100.00
51289;BME280;37372;52.294;5.152;2022-08-01T00:48:15;101745.53;;;18.07;100.00
51289;BME280;37372;52.294;5.152;2022-08-01T00:50:40;101748.72;;;18.09;100.00
51289;BME280;37372;52.294;5.152;2022-08-01T00:53:05;101752.78;;;18.08;100.00
51289;BME280;37372;52.294;5.152;2022-08-01T00:55:31;101758.47;;;18.08;100.00
51289;BME280;37372;52.294;5.152;2022-08-01T00:57:57;101754.06;;;18.07;100.00
51289;BME280;37372;52.294;5.152;2022-08-01T01:00:23;101758.47;;;18.08;100.00
51289;BME280;37372;52.294;5.152;2022-08-01T01:02:48;101761.78;;;18.07;100.00
51289;BME280;37372;52.294;5.152;2022-08-01T01:05:14;101755.28;;;18.06;100.00
51289;BME280;37372;52.294;5.152;2022-08-01T01:08:04;101755.28;;;18.06;100.00
51289;BME280;37372;52.294;5.152;2022-08-01T01:10:38;101756.53;;;18.05;100.00
51289;BME280;37372;52.294;5.152;2022-08-01T01:16:03;101755.38;;;18.03;100.00
51289;BME280;37372;52.294;5.152;2022-08-01T01:18:37;101756.63;;;18.02;100.00
51289;BME280;37372;52.294;5.152;2022-08-01T01:24:04;101758.75;;;17.97;100.00
51289;BME280;37372;52.294;5.152;2022-08-01T01:26:49;101749.00;;;17.98;100.00
51289;BME280;37372;52.294;5.152;2022-08-01T01:32:02;101743.31;;;17.98;100.00
51289;BME280;37372;52.294;5.152;2022-08-01T01:34:32;101756.81;;;17.94;100.00
51289;BME280;37372;52.294;5.152;2022-08-01T01:37:01;101750.34;;;17.94;100.00
51289;BME280;37372;52.294;5.152;2022-08-01T01:39:28;101751.13;;;17.94;100.00
51289;BME280;37372;52.294;5.152;2022-08-01T01:41:55;101739.44;;;17.92;100.00
51289;BME280;37372;52.294;5.152;2022-08-01T01:44:21;101751.22;;;17.91;100.00
51289;BME280;37372;52.294;5.152;2022-08-01T01:46:47;101751.22;;;17.91;100.00
51289;BME280;37372;52.294;5.152;2022-08-01T01:49:14;101755.66;;;17.92;100.00
51289;BME280;37372;52.294;5.152;2022-08-01T01:51:41;101743.16;;;17.89;100.00
51289;BME280;37372;52.294;5.152;2022-08-01T01:54:08;101748.03;;;17.89;100.00
51289;BME280;37372;52.294;5.152;2022-08-01T01:56:35;101752.47;;;17.90;100.00
51289;BME280;37372;52.294;5.152;2022-08-01T01:59:18;101756.88;;;17.91;100.00
51289;BME280;37372;52.294;5.152;2022-08-01T02:01:46;101762.13;;;17.92;100.00
51289;BME280;37372;52.294;5.152;2022-08-01T02:04:13;101758.03;;;17.93;100.00
51289;BME280;37372;52.294;5.152;2022-08-01T02:06:39;101757.78;;;17.88;100.00
51289;BME280;37372;52.294;5.152;2022-08-01T02:09:06;101755.75;;;17.88;100.00
51289;BME280;37372;52.294;5.152;2022-08-01T02:11:34;101753.09;;;17.81;100.00
51289;BME280;37372;52.294;5.152;2022-08-01T02:14:02;101756.75;;;17.82;100.00
51289;BME280;37372;52.294;5.152;2022-08-01T02:16:33;101759.22;;;17.79;100.00
51289;BME280;37372;52.294;5.152;2022-08-01T02:19:00;101757.59;;;17.78;100.00
51289;BME280;37372;52.294;5.152;2022-08-01T02:22:00;101765.75;;;17.76;100.00
51289;BME280;37372;52.294;5.152;2022-08-01T02:27:16;101762.56;;;17.74;100.00
51289;BME280;37372;52.294;5.152;2022-08-01T02:29:46;101760.97;;;17.73;100.00
51289;BME280;37372;52.294;5.152;2022-08-01T02:32:25;101767.50;;;17.70;100.00
51289;BME280;37372;52.294;5.152;2022-08-01T02:34:53;101773.19;;;17.70;100.00
51289;BME280;37372;52.294;5.152;2022-08-01T02:37:21;101772.31;;;17.73;100.00
51289;BME280;37372;52.294;5.152;2022-08-01T02:39:51;101770.72;;;17.72;100.00
51289;BME280;37372;52.294;5.152;2022-08-01T02:42:18;101774.78;;;17.71;100.00
51289;BME280;37372;52.294;5.152;2022-08-01T02:44:44;101770.88;;;17.65;100.00
51289;BME280;37372;52.294;5.152;2022-08-01T02:47:12;101762.28;;;17.69;100.00
51289;BME280;37372;52.294;5.152;2022-08-01T02:49:42;101761.50;;;17.68;100.00
51289;BME280;37372;52.294;5.152;2022-08-01T02:52:12;101771.59;;;17.69;100.00
51289;BME280;37372;52.294;5.152;2022-08-01T02:54:40;101764.66;;;17.70;100.00
51289;BME280;37372;52.294;5.152;2022-08-01T02:57:08;101765.50;;;17.71;100.00
51289;BME280;37372;52.294;5.152;2022-08-01T02:59:36;101759.34;;;17.72;100.00
51289;BME280;37372;52.294;5.152;2022-08-01T03:02:02;101756.97;;;17.71;100.00
51289;BME280;37372;52.294;5.152;2022-08-01T03:04:30;101756.97;;;17.71;100.00
51289;BME280;37372;52.294;5.152;2022-08-01T03:06:57;101764.34;;;17.68;100.00
51289;BME280;37372;52.294;5.152;2022-08-01T03:09:25;101762.47;;;17.62;100.00
51289;BME280;37372;52.294;5.152;2022-08-01T03:11:52;101763.63;;;17.64;100.00
51289;BME280;37372;52.294;5.152;2022-08-01T03:14:20;101758.38;;;17.63;100.00
51289;BME280;37372;52.294;5.152;2022-08-01T03:16:47;101770.53;;;17.63;100.00
51289;BME280;37372;52.294;5.152;2022-08-01T03:19:15;101768.50;;;17.64;100.00
51289;BME280;37372;52.294;5.152;2022-08-01T03:21:43;101772.13;;;17.64;100.00
51289;BME280;37372;52.294;5.152;2022-08-01T03:24:10;101779.06;;;17.63;100.00
51289;BME280;37372;52.294;5.152;2022-08-01T03:26:38;101773.38;;;17.63;100.00
51289;BME280;37372;52.294;5.152;2022-08-01T03:29:11;101775.75;;;17.65;100.00
51289;BME280;37372;52.294;5.152;2022-08-01T03:31:38;101775.75;;;17.65;100.00
51289;BME280;37372;52.294;5.152;2022-08-01T03:34:07;101771.41;;;17.60;100.00
51289;BME280;37372;52.294;5.152;2022-08-01T03:36:34;101768.94;;;17.62;100.00
51289;BME280;37372;52.294;5.152;2022-08-01T03:39:03;101781.88;;;17.63;100.00
51289;BME280;37372;52.294;5.152;2022-08-01T03:41:34;101781.44;;;17.65;100.00
51289;BME280;37372;52.294;5.152;2022-08-01T03:44:10;101781.44;;;17.65;100.00
51289;BME280;37372;52.294;5.152;2022-08-01T03:46:50;101780.63;;;17.64;100.00
51289;BME280;37372;52.294;5.152;2022-08-01T03:49:20;101778.69;;;17.61;100.00
51289;BME280;37372;52.294;5.152;2022-08-01T03:51:49;101783.09;;;17.62;100.00
51289;BME280;37372;52.294;5.152;2022-08-01T03:54:17;101781.53;;;17.61;100.00
51289;BME280;37372;52.294;5.152;2022-08-01T03:56:46;101781.53;;;17.61;100.00
51289;BME280;37372;52.294;5.152;2022-08-01T03:59:14;101784.72;;;17.63;100.00
51289;BME280;37372;52.294;5.152;2022-08-01T04:01:43;101784.78;;;17.60;100.00
51289;BME280;37372;52.294;5.152;2022-08-01T04:04:09;101779.91;;;17.60;100.00
51289;BME280;37372;52.294;5.152;2022-08-01T04:06:38;101780.81;;;17.57;100.00
51289;BME280;37372;52.294;5.152;2022-08-01T04:09:03;101776.75;;;17.58;100.00
51289;BME280;37372;52.294;5.152;2022-08-01T04:11:28;101771.88;;;17.58;100.00
51289;BME280;37372;52.294;5.152;2022-08-01T04:13:55;101783.28;;;17.55;100.00
51289;BME280;37372;52.294;5.152;2022-08-01T04:16:21;101785.69;;;17.56;100.00
51289;BME280;37372;52.294;5.152;2022-08-01T04:18:47;101788.94;;;17.55;100.00
51289;BME280;37372;52.294;5.152;2022-08-01T04:21:13;101796.31;;;17.52;100.00
51289;BME280;37372;52.294;5.152;2022-08-01T04:23:41;101799.97;;;17.53;100.00
51289;BME280;37372;52.294;5.152;2022-08-01T04:26:08;101795.50;;;17.52;100.00
51289;BME280;37372;52.294;5.152;2022-08-01T04:28:36;101795.50;;;17.52;100.00
51289;BME280;37372;52.294;5.152;2022-08-01T04:31:02;101794.72;;;17.51;100.00
51289;BME280;37372;52.294;5.152;2022-08-01T04:33:30;101789.94;;;17.48;100.00
51289;BME280;37372;52.294;5.152;2022-08-01T04:35:58;101793.13;;;17.50;100.00
51289;BME280;37372;52.294;5.152;2022-08-01T04:38:26;101794.81;;;17.48;100.00
51289;BME280;37372;52.294;5.152;2022-08-01T04:40:54;101792.84;;;17.45;100.00
51289;BME280;37372;52.294;5.152;2022-08-01T04:43:20;101802.06;;;17.49;100.00
51289;BME280;37372;52.294;5.152;2022-08-01T04:45:47;101788.25;;;17.51;100.00
51289;BME280;37372;52.294;5.152;2022-08-01T04:48:13;101799.13;;;17.52;100.00
51289;BME280;37372;52.294;5.152;2022-08-01T04:50:41;101807.66;;;17.52;100.00
51289;BME280;37372;52.294;5.152;2022-08-01T04:53:15;101810.84;;;17.54;100.00
51289;BME280;37372;52.294;5.152;2022-08-01T04:55:42;101811.63;;;17.55;100.00
51289;BME280;37372;52.294;5.152;2022-08-01T04:58:09;101808.38;;;17.56;100.00
51289;BME280;37372;52.294;5.152;2022-08-01T05:00:35;101810.78;;;17.58;100.00
51289;BME280;37372;52.294;5.152;2022-08-01T05:03:00;101810.69;;;17.62;100.00
51289;BME280;37372;52.294;5.152;2022-08-01T05:05:25;101815.56;;;17.61;100.00
51289;BME280;37372;52.294;5.152;2022-08-01T05:07:51;101820.34;;;17.64;100.00
51289;BME280;37372;52.294;5.152;2022-08-01T05:10:16;101821.94;;;17.65;100.00
51289;BME280;37372;52.294;5.152;2022-08-01T05:12:42;101823.56;;;17.66;100.00
51289;BME280;37372;52.294;5.152;2022-08-01T05:15:08;101823.09;;;17.68;100.00
51289;BME280;37372;52.294;5.152;2022-08-01T05:17:33;101816.19;;;17.69;100.00
51289;BME280;37372;52.294;5.152;2022-08-01T05:19:58;101823.47;;;17.70;100.00
51289;BME280;37372;52.294;5.152;2022-08-01T05:22:24;101816.09;;;17.72;100.00
51289;BME280;37372;52.294;5.152;2022-08-01T05:24:50;101818.50;;;17.74;100.00
51289;BME280;37372;52.294;5.152;2022-08-01T05:27:17;101822.50;;;17.76;100.00
51289;BME280;37372;52.294;5.152;2022-08-01T05:29:43;101828.25;;;17.73;100.00
51289;BME280;37372;52.294;5.152;2022-08-01T05:32:08;101826.66;;;17.72;100.00
51289;BME280;37372;52.294;5.152;2022-08-01T05:34:34;101830.81;;;17.67;100.00
51289;BME280;37372;52.294;5.152;2022-08-01T05:36:59;101830.66;;;17.74;100.00
51289;BME280;37372;52.294;5.152;2022-08-01T05:39:25;101824.09;;;17.77;100.00
51289;BME280;37372;52.294;5.152;2022-08-01T05:41:51;101834.59;;;17.81;100.00
51289;BME280;37372;52.294;5.152;2022-08-01T05:44:16;101838.66;;;17.79;100.00
51289;BME280;37372;52.294;5.152;2022-08-01T05:46:41;101844.41;;;17.76;100.00
51289;BME280;37372;52.294;5.152;2022-08-01T05:49:07;101846.53;;;17.72;100.00
51289;BME280;37372;52.294;5.152;2022-08-01T05:51:32;101844.56;;;17.69;100.00
51289;BME280;37372;52.294;5.152;2022-08-01T05:53:58;101849.09;;;17.66;100.00
51289;BME280;37372;52.294;5.152;2022-08-01T05:56:23;101853.66;;;17.60;100.00
51289;BME280;37372;52.294;5.152;2022-08-01T05:58:49;101850.41;;;17.62;100.00
51289;BME280;37372;52.294;5.152;2022-08-01T06:01:16;101858.03;;;17.65;100.00
51289;BME280;37372;52.294;5.152;2022-08-01T06:03:41;101862.53;;;17.62;100.00
51289;BME280;37372;52.294;5.152;2022-08-01T06:06:07;101857.03;;;17.55;100.00
51289;BME280;37372;52.294;5.152;2022-08-01T06:08:32;101858.66;;;17.56;100.00
51289;BME280;37372;52.294;5.152;2022-08-01T06:10:57;101867.16;;;17.56;100.00
51289;BME280;37372;52.294;5.152;2022-08-01T06:13:23;101859.44;;;17.56;100.00
51289;BME280;37372;52.294;5.152;2022-08-01T06:15:48;101868.16;;;17.66;100.00
51289;BME280;37372;52.294;5.152;2022-08-01T06:18:14;101870.19;;;17.65;100.00
51289;BME280;37372;52.294;5.152;2022-08-01T06:20:40;101867.34;;;17.65;100.00
51289;BME280;37372;52.294;5.152;2022-08-01T06:23:06;101872.31;;;17.61;100.00
51289;BME280;37372;52.294;5.152;2022-08-01T06:25:31;101868.94;;;17.66;100.00
51289;BME280;37372;52.294;5.152;2022-08-01T06:27:57;101876.66;;;17.66;100.00
51289;BME280;37372;52.294;5.152;2022-08-01T06:30:22;101872.59;;;17.67;100.00
51289;BME280;37372;52.294;5.152;2022-08-01T06:32:47;101872.59;;;17.67;100.00
51289;BME280;37372;52.294;5.152;2022-08-01T06:35:13;101881.09;;;17.67;100.00
51289;BME280;37372;52.294;5.152;2022-08-01T06:37:39;101882.78;;;17.64;100.00
51289;BME280;37372;52.294;5.152;2022-08-01T06:40:07;101882.03;;;17.60;100.00
51289;BME280;37372;52.294;5.152;2022-08-01T06:42:33;101884.38;;;17.65;100.00
51289;BME280;37372;52.294;5.152;2022-08-01T06:45:06;101881.19;;;17.63;100.00
51289;BME280;37372;52.294;5.152;2022-08-01T06:47:32;101892.16;;;17.61;100.00
51289;BME280;37372;52.294;5.152;2022-08-01T06:49:57;101886.22;;;17.55;100.00
51289;BME280;37372;52.294;5.152;2022-08-01T06:52:23;101887.81;;;17.56;100.00
51289;BME280;37372;52.294;5.152;2022-08-01T06:54:48;101886.56;;;17.57;100.00
51289;BME280;37372;52.294;5.152;2022-08-01T06:57:13;101893.38;;;17.60;100.00
51289;BME280;37372;52.294;5.152;2022-08-01T06:59:39;101913.75;;;17.55;100.00
51289;BME280;37372;52.294;5.152;2022-08-01T07:02:04;101902.88;;;17.53;100.00
51289;BME280;37372;52.294;5.152;2022-08-01T07:04:31;101907.38;;;17.51;100.00
51289;BME280;37372;52.294;5.152;2022-08-01T07:06:57;101910.66;;;17.49;100.00
51289;BME280;37372;52.294;5.152;2022-08-01T07:09:22;101913.56;;;17.46;100.00
51289;BME280;37372;52.294;5.152;2022-08-01T07:11:47;101914.66;;;17.52;100.00
51289;BME280;37372;52.294;5.152;2022-08-01T07:14:13;101914.50;;;17.59;100.00
51289;BME280;37372;52.294;5.152;2022-08-01T07:16:38;101911.06;;;17.68;100.00
51289;BME280;37372;52.294;5.152;2022-08-01T07:19:04;101912.03;;;17.81;100.00
51289;BME280;37372;52.294;5.152;2022-08-01T07:21:29;101908.22;;;17.88;100.00
51289;BME280;37372;52.294;5.152;2022-08-01T07:23:54;101914.88;;;17.81;100.00
51289;BME280;37372;52.294;5.152;2022-08-01T07:26:20;101913.81;;;17.91;100.00
51289;BME280;37372;52.294;5.152;2022-08-01T07:28:45;101916.94;;;17.97;100.00
51289;BME280;37372;52.294;5.152;2022-08-01T07:31:10;101923.50;;;18.10;100.00
51289;BME280;37372;52.294;5.152;2022-08-01T07:33:36;101921.75;;;18.33;100.00
51289;BME280;37372;52.294;5.152;2022-08-01T07:36:01;101915.19;;;18.36;100.00
51289;BME280;37372;52.294;5.152;2022-08-01T07:38:28;101929.34;;;18.03;97.01
51289;BME280;37372;52.294;5.152;2022-08-01T07:40:54;101930.88;;;18.08;98.85
51289;BME280;37372;52.294;5.152;2022-08-01T07:43:20;101932.66;;;18.02;95.11
51289;BME280;37372;52.294;5.152;2022-08-01T07:45:45;101942.75;;;18.19;96.68
51289;BME280;37372;52.294;5.152;2022-08-01T07:48:10;101941.38;;;18.27;92.59
51289;BME280;37372;52.294;5.152;2022-08-01T07:50:36;101931.94;;;18.47;94.37
51289;BME280;37372;52.294;5.152;2022-08-01T07:53:01;101944.22;;;18.60;97.03
51289;BME280;37372;52.294;5.152;2022-08-01T07:55:27;101942.59;;;18.59;93.57
51289;BME280;37372;52.294;5.152;2022-08-01T07:57:52;101950.31;;;18.75;92.85
51289;BME280;37372;52.294;5.152;2022-08-01T08:00:18;101961.28;;;18.76;89.83
51289;BME280;37372;52.294;5.152;2022-08-01T08:02:44;101951.22;;;18.88;90.56
51289;BME280;37372;52.294;5.152;2022-08-01T08:05:10;101951.13;;;18.92;88.27
51289;BME280;37372;52.294;5.152;2022-08-01T08:07:35;101953.72;;;18.86;87.62
51289;BME280;37372;52.294;5.152;2022-08-01T08:10:00;101954.03;;;18.72;86.09
51289;BME280;37372;52.294;5.152;2022-08-01T08:12:27;101946.84;;;18.67;85.54
51289;BME280;37372;52.294;5.152;2022-08-01T08:14:52;101954.16;;;18.68;86.15
51289;BME280;37372;52.294;5.152;2022-08-01T08:17:17;101954.78;;;18.76;85.90
51289;BME280;37372;52.294;5.152;2022-08-01T08:19:43;101954.50;;;18.86;86.99
51289;BME280;37372;52.294;5.152;2022-08-01T08:22:09;101958.94;;;18.87;86.50
51289;BME280;37372;52.294;5.152;2022-08-01T08:24:36;101963.53;;;18.98;88.58
51289;BME280;37372;52.294;5.152;2022-08-01T08:27:02;101969.81;;;19.05;87.19
51289;BME280;37372;52.294;5.152;2022-08-01T08:29:29;101970.38;;;19.00;86.02
51289;BME280;37372;52.294;5.152;2022-08-01T08:31:56;101971.63;;;18.99;84.73
51289;BME280;37372;52.294;5.152;2022-08-01T08:34:22;101970.38;;;19.00;85.13
51289;BME280;37372;52.294;5.152;2022-08-01T08:36:48;101973.75;;;18.95;84.06
51289;BME280;37372;52.294;5.152;2022-08-01T08:39:14;101976.66;;;19.08;85.18
51289;BME280;37372;52.294;5.152;2022-08-01T08:41:40;101971.44;;;19.06;86.85
51289;BME280;37372;52.294;5.152;2022-08-01T08:44:07;101981.84;;;18.97;86.08
51289;BME280;37372;52.294;5.152;2022-08-01T08:46:33;101977.13;;;18.90;84.64
51289;BME280;37372;52.294;5.152;2022-08-01T08:49:00;101978.56;;;18.82;83.14
51289;BME280;37372;52.294;5.152;2022-08-01T08:51:27;101981.13;;;18.93;84.08
51289;BME280;37372;52.294;5.152;2022-08-01T08:53:56;101987.28;;;18.91;84.95
51289;BME280;37372;52.294;5.152;2022-08-01T08:56:23;101979.44;;;18.95;84.50
51289;BME280;37372;52.294;5.152;2022-08-01T08:58:50;101985.84;;;18.99;87.26
51289;BME280;37372;52.294;5.152;2022-08-01T09:01:16;101981.47;;;19.11;86.21
51289;BME280;37372;52.294;5.152;2022-08-01T09:03:43;101988.44;;;19.23;85.27
51289;BME280;37372;52.294;5.152;2022-08-01T09:06:09;101990.75;;;19.28;83.91
51289;BME280;37372;52.294;5.152;2022-08-01T09:08:35;101991.56;;;19.28;84.28
51289;BME280;37372;52.294;5.152;2022-08-01T09:11:01;101996.25;;;19.35;83.31
51289;BME280;37372;52.294;5.152;2022-08-01T09:13:26;101996.66;;;19.50;84.45
51289;BME280;37372;52.294;5.152;2022-08-01T09:15:54;102009.72;;;19.47;83.50
51289;BME280;37372;52.294;5.152;2022-08-01T09:18:37;102012.72;;;19.57;82.06
51289;BME280;37372;52.294;5.152;2022-08-01T09:23:45;102007.72;;;19.61;81.49
51289;BME280;37372;52.294;5.152;2022-08-01T09:26:13;102010.75;;;19.70;81.39
51289;BME280;37372;52.294;5.152;2022-08-01T09:28:40;102003.66;;;19.62;79.41
51289;BME280;37372;52.294;5.152;2022-08-01T09:31:16;102016.50;;;19.66;79.34
51289;BME280;37372;52.294;5.152;2022-08-01T09:33:56;102011.97;;;19.69;79.83
51289;BME280;37372;52.294;5.152;2022-08-01T09:36:43;102007.47;;;19.84;80.35
51289;BME280;37372;52.294;5.152;2022-08-01T09:39:13;102012.19;;;20.04;79.91
51289;BME280;37372;52.294;5.152;2022-08-01T09:41:39;102016.84;;;19.98;77.99
51289;BME280;37372;52.294;5.152;2022-08-01T09:44:05;102015.47;;;20.02;78.15
51289;BME280;37372;52.294;5.152;2022-08-01T09:46:31;102022.56;;;20.10;76.93
51289;BME280;37372;52.294;5.152;2022-08-01T09:51:37;102029.97;;;20.08;76.42
51289;BME280;37372;52.294;5.152;2022-08-01T09:54:05;102032.56;;;20.02;75.65
51289;BME280;37372;52.294;5.152;2022-08-01T09:56:39;102038.09;;;19.80;75.64
51289;BME280;37372;52.294;5.152;2022-08-01T09:59:07;102041.97;;;19.86;75.42
51289;BME280;37372;52.294;5.152;2022-08-01T10:01:44;102032.81;;;20.08;76.28
51289;BME280;37372;52.294;5.152;2022-08-01T10:04:21;102040.81;;;20.13;75.15
51289;BME280;37372;52.294;5.152;2022-08-01T10:06:49;102034.66;;;20.27;74.50
51289;BME280;37372;52.294;5.152;2022-08-01T10:09:28;102027.22;;;20.17;75.12
51289;BME280;37372;52.294;5.152;2022-08-01T10:11:55;102038.75;;;20.13;72.97
51289;BME280;37372;52.294;5.152;2022-08-01T10:14:26;102042.75;;;20.16;73.03
51289;BME280;37372;52.294;5.152;2022-08-01T10:16:53;102038.97;;;20.19;73.32
51289;BME280;37372;52.294;5.152;2022-08-01T10:19:25;102039.88;;;20.16;72.53
51289;BME280;37372;52.294;5.152;2022-08-01T10:21:53;102042.31;;;20.30;73.20
51289;BME280;37372;52.294;5.152;2022-08-01T10:24:22;102049.47;;;20.22;71.31
51289;BME280;37372;52.294;5.152;2022-08-01T10:26:55;102046.28;;;20.20;70.51
51289;BME280;37372;52.294;5.152;2022-08-01T10:29:22;102045.59;;;20.29;71.15
51289;BME280;37372;52.294;5.152;2022-08-01T10:31:49;102040.25;;;20.31;70.60
51289;BME280;37372;52.294;5.152;2022-08-01T10:34:16;102049.38;;;20.38;69.26
51289;BME280;37372;52.294;5.152;2022-08-01T10:36:44;102055.75;;;20.43;68.35
51289;BME280;37372;52.294;5.152;2022-08-01T10:39:11;102047.22;;;20.55;69.29
51289;BME280;37372;52.294;5.152;2022-08-01T10:41:38;102046.66;;;20.60;69.10
51289;BME280;37372;52.294;5.152;2022-08-01T10:44:06;102044.16;;;20.63;69.23
51289;BME280;37372;52.294;5.152;2022-08-01T10:46:34;102046.06;;;20.66;69.27
51289;BME280;37372;52.294;5.152;2022-08-01T10:49:14;102046.22;;;20.62;68.62
51289;BME280;37372;52.294;5.152;2022-08-01T10:51:41;102058.38;;;20.50;67.02
51289;BME280;37372;52.294;5.152;2022-08-01T10:54:09;102051.13;;;20.62;67.63
51289;BME280;37372;52.294;5.152;2022-08-01T10:56:39;102051.00;;;20.65;68.39
51289;BME280;37372;52.294;5.152;2022-08-01T10:59:07;102051.13;;;20.62;67.79
51289;BME280;37372;52.294;5.152;2022-08-01T11:01:32;102057.94;;;20.77;67.30
51289;BME280;37372;52.294;5.152;2022-08-01T11:09:01;102064.06;;;20.88;66.30
51289;BME280;37372;52.294;5.152;2022-08-01T11:11:26;102056.44;;;20.98;66.67
51289;BME280;37372;52.294;5.152;2022-08-01T11:16:39;102070.00;;;20.81;64.31
51289;BME280;37372;52.294;5.152;2022-08-01T11:19:06;102071.06;;;20.87;65.19
51289;BME280;37372;52.294;5.152;2022-08-01T11:27:31;102072.63;;;20.88;65.11
51289;BME280;37372;52.294;5.152;2022-08-01T11:32:45;102071.72;;;21.04;65.41
51289;BME280;37372;52.294;5.152;2022-08-01T11:35:11;102075.25;;;20.95;63.69
51289;BME280;37372;52.294;5.152;2022-08-01T11:37:37;102058.59;;;21.07;65.46
51289;BME280;37372;52.294;5.152;2022-08-01T11:40:25;102071.00;;;21.13;63.64
51289;BME280;37372;52.294;5.152;2022-08-01T11:45:51;102068.22;;;21.35;61.89
51289;BME280;37372;52.294;5.152;2022-08-01T11:48:22;102068.09;;;21.38;62.91
51289;BME280;37372;52.294;5.152;2022-08-01T11:50:50;102076.13;;;21.18;61.58
51289;BME280;37372;52.294;5.152;2022-08-01T11:53:16;102069.13;;;21.32;62.79
51289;BME280;37372;52.294;5.152;2022-08-01T11:55:48;102064.81;;;21.40;64.05
51289;BME280;37372;52.294;5.152;2022-08-01T11:58:14;102073.13;;;21.21;62.28
51289;BME280;37372;52.294;5.152;2022-08-01T12:00:40;102079.88;;;21.28;61.74
51289;BME280;37372;52.294;5.152;2022-08-01T12:03:07;102076.53;;;21.29;61.27
51289;BME280;37372;52.294;5.152;2022-08-01T12:05:35;102077.59;;;21.22;62.14
51289;BME280;37372;52.294;5.152;2022-08-01T12:08:03;102071.72;;;21.04;61.85
51289;BME280;37372;52.294;5.152;2022-08-01T12:10:33;102073.72;;;21.16;61.17
51289;BME280;37372;52.294;5.152;2022-08-01T12:13:03;102084.59;;;21.09;60.49
51289;BME280;37372;52.294;5.152;2022-08-01T12:15:35;102088.16;;;21.00;60.35
51289;BME280;37372;52.294;5.152;2022-08-01T12:18:03;102079.44;;;21.16;61.73
51289;BME280;37372;52.294;5.152;2022-08-01T12:20:34;102089.59;;;21.17;60.04
51289;BME280;37372;52.294;5.152;2022-08-01T12:23:03;102085.13;;;21.16;59.73
51289;BME280;37372;52.294;5.152;2022-08-01T12:25:31;102068.59;;;21.11;60.88
51289;BME280;37372;52.294;5.152;2022-08-01T12:28:03;102085.94;;;21.30;60.31
51289;BME280;37372;52.294;5.152;2022-08-01T12:30:29;102085.66;;;21.37;59.41
51289;BME280;37372;52.294;5.152;2022-08-01T12:33:03;102079.28;;;21.33;58.41
51289;BME280;37372;52.294;5.152;2022-08-01T12:35:30;102083.06;;;21.30;59.08
51289;BME280;37372;52.294;5.152;2022-08-01T12:38:00;102086.72;;;21.43;58.10
51289;BME280;37372;52.294;5.152;2022-08-01T12:40:28;102088.03;;;21.51;57.42
51289;BME280;37372;52.294;5.152;2022-08-01T12:42:56;102084.59;;;21.56;57.58
51289;BME280;37372;52.294;5.152;2022-08-01T12:45:25;102088.97;;;21.48;55.64
51289;BME280;37372;52.294;5.152;2022-08-01T12:47:52;102084.16;;;21.58;56.85
51289;BME280;37372;52.294;5.152;2022-08-01T12:50:20;102088.19;;;21.70;57.42
51289;BME280;37372;52.294;5.152;2022-08-01T12:52:46;102091.41;;;21.24;55.15
51289;BME280;37372;52.294;5.152;2022-08-01T12:55:21;102084.84;;;21.36;56.83
51289;BME280;37372;52.294;5.152;2022-08-01T12:57:49;102085.34;;;21.35;55.67
51289;BME280;37372;52.294;5.152;2022-08-01T13:00:17;102088.28;;;21.44;57.08
51289;BME280;37372;52.294;5.152;2022-08-01T13:02:45;102081.41;;;21.54;58.45
51289;BME280;37372;52.294;5.152;2022-08-01T13:05:11;102085.28;;;21.60;58.00
51289;BME280;37372;52.294;5.152;2022-08-01T13:10:05;102085.13;;;21.64;57.78
51289;BME280;37372;52.294;5.152;2022-08-01T13:12:31;102078.88;;;21.56;58.38
51289;BME280;37372;52.294;5.152;2022-08-01T13:14:56;102091.50;;;21.46;58.60
51289;BME280;37372;52.294;5.152;2022-08-01T13:17:42;102088.03;;;21.51;58.12
51289;BME280;37372;52.294;5.152;2022-08-01T13:20:07;102078.28;;;21.61;58.05
51289;BME280;37372;52.294;5.152;2022-08-01T13:22:35;102074.75;;;21.57;58.13
51289;BME280;37372;52.294;5.152;2022-08-01T13:25:13;102085.53;;;21.53;58.01
51289;BME280;37372;52.294;5.152;2022-08-01T13:27:39;102082.59;;;21.44;56.54